Time;durP1;ratioP1;P1;durP2;ratioP2;P2;SDS_P1;SDS_P2;PMS_P1;PMS_P2;Temp;Humidity;BMP_temperature;BMP_pressure;BME280_temperature;BME280_humidity;BME280_pressure;Samples;Min_cycle;Max_cycle;Signal;HPM_P1;HPM_P2
2022/01/12 00:00:10;;;;;;;80.80;34.13;;;3.60;99.90;;;;;;5045708;28;20035;-81
2022/01/12 00:02:36;;;;;;;73.83;34.87;;;3.60;99.90;;;;;;5014181;28;20043;-81
2022/01/12 00:05:02;;;;;;;72.67;34.20;;;3.60;99.90;;;;;;5036296;28;20033;-81
2022/01/12 00:07:28;;;;;;;78.57;34.00;;;3.60;99.90;;;;;;5030198;28;20049;-81
2022/01/12 00:09:53;;;;;;;71.43;32.40;;;3.60;99.90;;;;;;5047874;28;20115;-81
2022/01/12 00:12:19;;;;;;;71.87;32.13;;;3.60;99.90;;;;;;5031361;28;20652;-80
2022/01/12 00:14:45;;;;;;;79.70;34.93;;;3.70;99.90;;;;;;5050579;28;20546;-81
2022/01/12 00:17:10;;;;;;;74.50;33.60;;;3.70;99.90;;;;;;5031149;28;20044;-81
2022/01/12 00:19:36;;;;;;;76.97;34.50;;;3.60;99.90;;;;;;5030468;28;20116;-79
2022/01/12 00:22:02;;;;;;;84.70;35.03;;;3.70;99.90;;;;;;5063428;28;20040;-80
2022/01/12 00:24:40;;;;;;;87.50;35.50;;;3.60;99.90;;;;;;5069698;28;20041;-80
2022/01/12 00:35:19;;;;;;;93.07;37.63;;;3.60;99.90;;;;;;5053415;28;20048;-81
2022/01/12 00:37:44;;;;;;;96.60;38.17;;;3.70;99.90;;;;;;5029302;28;20037;-81
2022/01/12 00:40:10;;;;;;;90.67;37.73;;;3.60;99.90;;;;;;5029506;28;20524;-81
2022/01/12 00:42:36;;;;;;;82.57;34.67;;;3.70;99.90;;;;;;5049581;28;20511;-81
2022/01/12 00:45:04;;;;;;;107.00;37.17;;;3.70;99.90;;;;;;5064241;28;20044;-80
2022/01/12 00:47:30;;;;;;;81.37;35.53;;;3.70;99.90;;;;;;5065966;28;20040;-81
2022/01/12 00:49:55;;;;;;;94.30;36.13;;;3.70;99.90;;;;;;5031156;28;20040;-81
2022/01/12 00:52:21;;;;;;;100.50;38.03;;;3.70;99.90;;;;;;5067212;28;20036;-81
2022/01/12 00:54:47;;;;;;;125.80;43.17;;;3.70;99.90;;;;;;5052443;28;20161;-80
2022/01/12 00:57:12;;;;;;;103.57;36.57;;;3.70;99.90;;;;;;5032660;28;20048;-80
2022/01/12 00:59:38;;;;;;;103.23;39.43;;;3.70;99.90;;;;;;5049206;28;20155;-80
2022/01/12 01:02:04;;;;;;;86.97;34.10;;;3.60;99.90;;;;;;5046360;28;20044;-80
2022/01/12 01:04:29;;;;;;;97.13;37.37;;;3.70;99.90;;;;;;5053797;28;20123;-80
2022/01/12 01:06:55;;;;;;;97.27;36.67;;;3.80;99.90;;;;;;5044431;28;20037;-80
2022/01/12 01:09:23;;;;;;;103.63;39.27;;;3.80;99.90;;;;;;5048503;28;20161;-81
2022/01/12 01:11:49;;;;;;;134.80;45.70;;;3.70;99.90;;;;;;5067095;28;20117;-81
2022/01/12 01:14:26;;;;;;;120.60;40.73;;;3.70;99.90;;;;;;5064439;28;20551;-81
2022/01/12 01:17:18;;;;;;;121.37;42.67;;;3.70;99.90;;;;;;5036339;28;20060;-81
2022/01/12 01:27:51;;;;;;;94.03;37.20;;;3.70;99.90;;;;;;5067831;28;20040;-81
2022/01/12 01:30:17;;;;;;;121.43;40.47;;;3.70;99.90;;;;;;5028087;28;20456;-81
2022/01/12 01:32:43;;;;;;;107.40;39.53;;;3.70;99.90;;;;;;5061511;28;20087;-80
2022/01/12 01:35:09;;;;;;;100.90;39.80;;;3.80;99.90;;;;;;5046931;28;20044;-80
2022/01/12 01:37:35;;;;;;;93.37;35.40;;;3.70;99.90;;;;;;5061797;28;20043;-80
2022/01/12 01:40:01;;;;;;;110.13;38.47;;;3.80;99.90;;;;;;5034168;28;20618;-81
2022/01/12 01:42:42;;;;;;;140.10;42.83;;;3.80;99.90;;;;;;5064894;28;20059;-81
2022/01/12 01:53:22;;;;;;;89.97;37.93;;;3.80;99.90;;;;;;5051984;28;20040;-80
2022/01/12 01:55:50;;;;;;;102.73;37.37;;;3.80;99.90;;;;;;5062616;28;20051;-80
2022/01/12 01:58:16;;;;;;;138.77;41.93;;;3.80;99.90;;;;;;5064547;28;20040;-81
2022/01/12 02:00:42;;;;;;;115.90;40.13;;;3.80;99.90;;;;;;5061902;28;20044;-80
2022/01/12 02:03:08;;;;;;;165.20;47.37;;;3.80;99.90;;;;;;5031535;28;20037;-80
2022/01/12 02:05:34;;;;;;;108.00;39.23;;;3.80;99.90;;;;;;5064805;28;20040;-80
2022/01/12 02:08:01;;;;;;;206.30;51.10;;;3.80;99.90;;;;;;5045299;28;20040;-80
2022/01/12 02:10:27;;;;;;;122.57;37.90;;;3.80;99.90;;;;;;5048199;28;20166;-80
2022/01/12 02:12:53;;;;;;;132.63;42.97;;;3.80;99.90;;;;;;5027865;28;20072;-80
2022/01/12 02:15:23;;;;;;;158.77;43.57;;;3.90;99.90;;;;;;5064257;28;20060;-81
2022/01/12 02:40:21;;;;;;;204.07;51.47;;;3.90;99.90;;;;;;5063020;28;20044;-79
2022/01/12 02:42:57;;;;;;;137.60;42.77;;;3.90;99.90;;;;;;5060881;28;20387;-79
2022/01/12 02:51:08;;;;;;;141.43;43.27;;;4.00;99.90;;;;;;5048727;28;20522;-79
2022/01/12 02:53:39;;;;;;;129.07;39.55;;;4.00;99.90;;;;;;5065255;28;20055;-79
2022/01/12 02:56:19;;;;;;;174.27;43.43;;;4.00;99.90;;;;;;5045190;28;20605;-79
2022/01/12 02:58:47;;;;;;;139.83;43.87;;;4.00;99.90;;;;;;5060657;28;20502;-79
2022/01/12 03:03:58;;;;;;;137.40;40.37;;;4.00;99.90;;;;;;5061291;28;20471;-79
2022/01/12 03:06:29;;;;;;;147.17;42.17;;;4.00;99.90;;;;;;5029766;28;20043;-79
2022/01/12 03:08:55;;;;;;;166.87;46.90;;;4.00;99.90;;;;;;5045846;28;20040;-79
2022/01/12 03:11:22;;;;;;;192.40;45.93;;;4.00;99.90;;;;;;5061373;28;20153;-79
2022/01/12 03:13:49;;;;;;;173.63;44.57;;;4.00;99.90;;;;;;5029770;28;20036;-79
2022/01/12 03:16:18;;;;;;;192.10;49.27;;;4.00;99.90;;;;;;5061141;28;20507;-79
2022/01/12 03:18:46;;;;;;;191.37;46.67;;;4.00;99.90;;;;;;5031293;28;20076;-79
2022/01/12 03:21:13;;;;;;;133.73;42.13;;;4.00;99.90;;;;;;5064882;28;20039;-79
2022/01/12 03:23:39;;;;;;;127.67;39.77;;;4.00;99.90;;;;;;5028597;28;20028;-79
2022/01/12 03:26:07;;;;;;;120.13;39.57;;;4.10;99.90;;;;;;5046668;28;20067;-79
2022/01/12 03:28:33;;;;;;;119.80;38.77;;;4.10;99.90;;;;;;5047970;28;20040;-79
2022/01/12 03:31:14;;;;;;;112.83;37.97;;;4.10;99.90;;;;;;5045580;28;20123;-79
2022/01/12 03:39:00;;;;;;;105.87;36.83;;;4.10;99.90;;;;;;5066868;28;20036;-79
2022/01/12 03:41:28;;;;;;;107.80;35.97;;;4.10;99.90;;;;;;5052227;28;20072;-79
2022/01/12 03:43:56;;;;;;;217.33;55.73;;;4.10;99.90;;;;;;5046929;28;20583;-79
2022/01/12 03:46:35;;;;;;;121.63;39.97;;;4.10;99.90;;;;;;5048773;28;20056;-79
2022/01/12 03:49:02;;;;;;;149.77;42.87;;;4.20;99.90;;;;;;5058110;28;20108;-79
2022/01/12 03:51:28;;;;;;;211.77;49.47;;;4.10;99.90;;;;;;5035697;28;20045;-79
2022/01/12 03:53:53;;;;;;;112.57;38.03;;;4.10;99.90;;;;;;5050085;28;20036;-79
2022/01/12 03:56:19;;;;;;;113.37;37.73;;;4.20;99.90;;;;;;5066365;28;20048;-79
2022/01/12 03:58:45;;;;;;;95.50;37.27;;;4.10;99.90;;;;;;5066288;28;20044;-79
2022/01/12 04:01:10;;;;;;;149.13;44.10;;;4.10;99.90;;;;;;5052655;28;20064;-79
2022/01/12 04:03:44;;;;;;;117.80;38.60;;;4.10;99.90;;;;;;5046916;28;20068;-79
2022/01/12 04:09:07;;;;;;;138.27;42.70;;;4.00;99.90;;;;;;5013145;28;20815;-79
2022/01/12 04:11:33;;;;;;;102.67;36.03;;;4.00;99.90;;;;;;5049338;28;20067;-79
2022/01/12 04:13:58;;;;;;;106.50;38.90;;;4.00;99.90;;;;;;5012660;28;20033;-79
2022/01/12 04:16:24;;;;;;;95.83;35.70;;;4.00;99.90;;;;;;5048493;28;20515;-79
2022/01/12 04:18:50;;;;;;;164.53;43.80;;;4.00;99.90;;;;;;5032908;28;20040;-79
2022/01/12 04:21:17;;;;;;;106.00;36.80;;;4.00;99.90;;;;;;5066006;28;20051;-79
2022/01/12 04:23:43;;;;;;;92.77;33.03;;;4.00;99.90;;;;;;5065630;28;20036;-79
2022/01/12 04:26:11;;;;;;;100.53;36.03;;;3.90;99.90;;;;;;5064421;28;20036;-79
2022/01/12 04:28:39;;;;;;;123.77;37.37;;;3.90;99.90;;;;;;5063994;28;20063;-79
2022/01/12 04:31:06;;;;;;;87.23;32.93;;;3.90;99.90;;;;;;5047363;28;20155;-79
2022/01/12 04:33:34;;;;;;;99.73;34.60;;;3.90;99.90;;;;;;5032288;28;20147;-79
2022/01/12 04:35:59;;;;;;;143.10;38.23;;;3.90;99.90;;;;;;5046817;28;20040;-79
2022/01/12 04:38:29;;;;;;;232.17;46.13;;;4.00;99.90;;;;;;5048541;28;20037;-79
2022/01/12 04:40:55;;;;;;;141.27;36.70;;;3.80;99.90;;;;;;5061832;28;20041;-79
2022/01/12 04:43:23;;;;;;;344.10;54.70;;;3.80;99.90;;;;;;5048618;28;20037;-79
2022/01/12 04:50:46;;;;;;;464.77;56.63;;;3.80;99.90;;;;;;5065642;28;20044;-79
2022/01/12 04:53:14;;;;;;;458.47;57.10;;;3.80;99.90;;;;;;5048703;28;20471;-79
2022/01/12 04:55:40;;;;;;;382.63;45.03;;;3.80;99.90;;;;;;5064402;28;20076;-79
2022/01/12 04:58:07;;;;;;;424.67;53.40;;;3.70;99.90;;;;;;5063470;28;20044;-79
2022/01/12 05:00:33;;;;;;;347.80;42.43;;;3.70;99.90;;;;;;5051010;28;20040;-78
2022/01/12 05:13:48;;;;;;;245.23;32.43;;;3.60;99.90;;;;;;5065899;28;20059;-79
2022/01/12 05:16:14;;;;;;;399.27;47.13;;;3.60;99.90;;;;;;5046087;28;20057;-80
2022/01/12 05:18:42;;;;;;;351.00;40.73;;;3.60;99.90;;;;;;5065003;28;20480;-79
2022/01/12 05:21:08;;;;;;;378.33;45.30;;;3.50;99.90;;;;;;5063040;28;20060;-79
2022/01/12 05:23:34;;;;;;;264.33;38.13;;;3.50;99.90;;;;;;5050714;28;20039;-78
2022/01/12 05:26:01;;;;;;;223.53;33.37;;;3.50;99.90;;;;;;5063095;28;20515;-78
2022/01/12 05:28:27;;;;;;;261.07;37.10;;;3.50;99.90;;;;;;5049954;28;20472;-79
2022/01/12 05:30:54;;;;;;;235.23;32.70;;;3.50;99.90;;;;;;5048899;28;20037;-79
2022/01/12 05:33:22;;;;;;;146.73;28.17;;;3.40;99.90;;;;;;5048452;28;20539;-79
2022/01/12 05:35:48;;;;;;;285.07;37.10;;;3.50;99.90;;;;;;5045323;28;20469;-78
2022/01/12 05:38:14;;;;;;;284.93;38.90;;;3.50;99.90;;;;;;5064461;28;20049;-78
2022/01/12 05:40:45;;;;;;;210.70;33.90;;;3.50;99.90;;;;;;5048087;28;20377;-78
2022/01/12 05:43:11;;;;;;;214.17;29.53;;;3.40;99.90;;;;;;5063704;28;20132;-77
2022/01/12 05:45:39;;;;;;;235.97;34.37;;;3.50;99.90;;;;;;5047094;28;20041;-79
2022/01/12 05:50:33;;;;;;;165.53;29.67;;;3.50;99.90;;;;;;5045566;28;20052;-79
2022/01/12 05:52:59;;;;;;;209.47;34.17;;;3.50;99.90;;;;;;5013467;28;20044;-79
2022/01/12 05:55:25;;;;;;;272.43;41.63;;;3.50;99.90;;;;;;5030294;28;20040;-79
2022/01/12 05:57:50;;;;;;;151.90;30.03;;;3.50;99.90;;;;;;5035686;28;20043;-79
2022/01/12 06:00:18;;;;;;;97.07;25.53;;;3.50;99.90;;;;;;5066537;28;20098;-79
2022/01/12 06:02:44;;;;;;;70.00;23.23;;;3.50;99.90;;;;;;5045368;28;20320;-79
2022/01/12 06:05:11;;;;;;;121.50;27.17;;;3.50;99.90;;;;;;5030733;28;20036;-78
2022/01/12 06:07:37;;;;;;;99.27;24.40;;;3.50;99.90;;;;;;5045285;28;20043;-79
2022/01/12 06:10:03;;;;;;;67.53;22.60;;;3.40;99.90;;;;;;5048728;28;20053;-79
2022/01/12 06:12:28;;;;;;;130.93;30.97;;;3.40;99.90;;;;;;5013008;28;20044;-79
2022/01/12 06:14:54;;;;;;;67.80;23.27;;;3.50;99.90;;;;;;5045173;28;20032;-79
2022/01/12 06:17:22;;;;;;;63.70;23.50;;;3.50;99.90;;;;;;5046040;28;20476;-79
2022/01/12 06:19:48;;;;;;;66.30;25.63;;;3.60;99.90;;;;;;5048562;28;20040;-78
2022/01/12 06:22:14;;;;;;;66.07;24.17;;;3.40;99.90;;;;;;5050215;28;20093;-78
2022/01/12 06:24:39;;;;;;;47.63;22.50;;;3.50;99.90;;;;;;5066148;28;20040;-78
2022/01/12 06:27:05;;;;;;;46.80;22.23;;;3.50;99.90;;;;;;5030341;28;20411;-79
2022/01/12 06:29:50;;;;;;;55.93;23.17;;;3.50;99.90;;;;;;5043602;28;20040;-79
2022/01/12 06:32:16;;;;;;;59.03;24.07;;;3.50;99.90;;;;;;5048718;28;20044;-78
2022/01/12 06:34:42;;;;;;;51.50;23.27;;;3.50;99.90;;;;;;5045279;28;20107;-78
2022/01/12 06:37:08;;;;;;;58.50;24.57;;;3.50;99.90;;;;;;5052599;28;20044;-78
2022/01/12 06:39:33;;;;;;;52.70;23.83;;;3.50;99.90;;;;;;5030952;28;20463;-78
2022/01/12 06:41:59;;;;;;;47.83;21.13;;;3.50;99.90;;;;;;5028623;28;20047;-79
2022/01/12 06:44:26;;;;;;;49.70;22.80;;;3.50;99.90;;;;;;5044547;28;20400;-79
2022/01/12 06:46:53;;;;;;;49.73;22.20;;;3.50;99.90;;;;;;5065882;28;20072;-78
2022/01/12 06:49:19;;;;;;;53.97;23.60;;;3.50;99.90;;;;;;5081170;28;20040;-79
2022/01/12 06:51:46;;;;;;;50.77;22.53;;;3.40;99.90;;;;;;5045461;28;20040;-79
2022/01/12 06:54:13;;;;;;;63.67;24.80;;;3.40;99.90;;;;;;5030403;28;20231;-78
2022/01/12 06:56:40;;;;;;;44.63;20.87;;;3.40;99.90;;;;;;5049540;28;20036;-78
2022/01/12 06:59:07;;;;;;;57.47;22.93;;;3.30;99.90;;;;;;5047268;28;20046;-79
2022/01/12 07:01:33;;;;;;;43.40;20.63;;;3.30;99.90;;;;;;5062911;28;20045;-79
2022/01/12 07:03:59;;;;;;;129.33;28.77;;;3.30;99.90;;;;;;5045011;28;20036;-79
2022/01/12 07:06:25;;;;;;;345.17;40.40;;;3.30;99.90;;;;;;5062401;28;20510;-78
2022/01/12 07:08:51;;;;;;;129.70;25.83;;;3.30;99.90;;;;;;5063113;28;20036;-79
2022/01/12 07:11:17;;;;;;;218.00;32.33;;;3.30;99.90;;;;;;5032959;28;20037;-78
2022/01/12 07:13:43;;;;;;;145.83;25.60;;;3.30;99.90;;;;;;5065116;28;20044;-79
2022/01/12 07:16:09;;;;;;;198.17;30.77;;;3.30;99.90;;;;;;5030132;28;20053;-79
2022/01/12 07:18:35;;;;;;;278.90;41.00;;;3.30;99.90;;;;;;5044527;28;20527;-79
2022/01/12 07:21:01;;;;;;;80.67;22.67;;;3.30;99.90;;;;;;5038780;28;20467;-79
2022/01/12 07:23:27;;;;;;;81.57;20.57;;;3.30;99.90;;;;;;5044191;28;20044;-79
2022/01/12 07:25:53;;;;;;;220.47;31.57;;;3.30;99.90;;;;;;5034263;28;20087;-79
2022/01/12 07:28:20;;;;;;;54.63;19.83;;;3.30;99.90;;;;;;5050409;28;20036;-79
2022/01/12 07:30:46;;;;;;;78.77;21.87;;;3.30;99.90;;;;;;5067248;28;20097;-79
2022/01/12 07:33:12;;;;;;;105.97;23.50;;;3.30;99.90;;;;;;5067270;28;20121;-79
2022/01/12 07:35:39;;;;;;;84.27;21.27;;;3.30;99.90;;;;;;5044669;28;20512;-79
2022/01/12 07:38:05;;;;;;;53.90;19.53;;;3.30;99.90;;;;;;5043955;28;20119;-79
2022/01/12 07:40:33;;;;;;;71.40;20.70;;;3.30;99.90;;;;;;5045943;28;20115;-78
2022/01/12 07:42:59;;;;;;;58.70;19.73;;;3.30;99.90;;;;;;5050837;28;20550;-79
2022/01/12 07:45:25;;;;;;;90.60;23.30;;;3.40;99.90;;;;;;5054328;28;20036;-78
2022/01/12 07:47:51;;;;;;;60.57;19.87;;;3.30;99.90;;;;;;5063855;28;20439;-79
2022/01/12 07:50:16;;;;;;;51.53;18.60;;;3.30;99.90;;;;;;5066702;28;20129;-78
2022/01/12 07:52:42;;;;;;;55.33;19.57;;;3.30;99.90;;;;;;5048791;28;20068;-78
2022/01/12 07:55:08;;;;;;;127.13;29.10;;;3.30;99.90;;;;;;5066252;28;20037;-79
2022/01/12 07:57:34;;;;;;;44.23;19.17;;;3.30;99.90;;;;;;5050460;28;20532;-79
2022/01/12 08:00:00;;;;;;;56.30;19.63;;;3.30;99.90;;;;;;5052945;28;20037;-79
2022/01/12 08:02:26;;;;;;;63.83;20.53;;;3.30;99.90;;;;;;5054213;28;20071;-79
2022/01/12 08:04:52;;;;;;;60.20;19.80;;;3.30;99.90;;;;;;5023022;28;20041;-79
2022/01/12 08:07:18;;;;;;;40.90;16.87;;;3.40;99.90;;;;;;5065234;28;20098;-79
2022/01/12 08:09:44;;;;;;;54.13;19.67;;;3.40;99.90;;;;;;5069096;28;20443;-79
2022/01/12 08:12:10;;;;;;;63.93;19.53;;;3.40;99.90;;;;;;5028545;28;20116;-79
2022/01/12 08:14:36;;;;;;;100.43;21.07;;;3.40;99.90;;;;;;5053981;28;20541;-79
2022/01/12 08:17:02;;;;;;;136.20;25.10;;;3.40;99.90;;;;;;5053739;28;20472;-79
2022/01/12 08:19:29;;;;;;;110.57;22.77;;;3.40;99.90;;;;;;5048834;28;20047;-79
2022/01/12 08:21:55;;;;;;;182.97;27.10;;;3.50;99.90;;;;;;5022671;28;20037;-78
2022/01/12 08:24:21;;;;;;;116.90;21.87;;;3.50;99.90;;;;;;5077466;28;20105;-79
2022/01/12 08:26:48;;;;;;;124.27;22.87;;;3.50;99.90;;;;;;5057857;28;20440;-79
2022/01/12 08:29:15;;;;;;;98.33;21.70;;;3.50;99.90;;;;;;5057852;28;20085;-79
2022/01/12 08:31:45;;;;;;;153.53;22.60;;;3.50;99.90;;;;;;5054611;28;20041;-79
2022/01/12 08:34:12;;;;;;;280.77;31.57;;;3.50;99.90;;;;;;5059706;28;20179;-80
2022/01/12 08:36:38;;;;;;;148.63;22.97;;;3.60;99.90;;;;;;5070533;28;20032;-79
2022/01/12 08:39:08;;;;;;;101.67;22.77;;;3.50;99.90;;;;;;5050391;28;20036;-79
2022/01/12 08:41:34;;;;;;;212.97;26.23;;;3.60;99.90;;;;;;5050123;28;20102;-79
2022/01/12 08:44:00;;;;;;;80.00;18.97;;;3.60;99.90;;;;;;5074287;28;20154;-79
2022/01/12 08:46:26;;;;;;;138.43;22.07;;;3.70;99.90;;;;;;5052391;28;20076;-79
2022/01/12 08:48:51;;;;;;;181.63;28.80;;;3.70;99.90;;;;;;5071995;28;20543;-79
2022/01/12 08:51:17;;;;;;;110.57;21.73;;;3.80;99.90;;;;;;5038095;28;20048;-78
2022/01/12 08:53:43;;;;;;;69.83;17.37;;;3.90;99.90;;;;;;5073006;28;20222;-79
2022/01/12 08:56:08;;;;;;;82.33;19.70;;;3.90;99.90;;;;;;5057335;28;20507;-79
2022/01/12 08:58:34;;;;;;;77.40;19.33;;;3.90;99.90;;;;;;5040761;28;20505;-79
2022/01/12 09:01:03;;;;;;;67.07;19.07;;;4.00;99.90;;;;;;5057605;28;20032;-79
2022/01/12 09:03:33;;;;;;;52.37;16.67;;;4.00;99.90;;;;;;5033783;28;20111;-79
2022/01/12 09:05:59;;;;;;;46.83;14.40;;;4.10;99.90;;;;;;5065403;28;20427;-79
2022/01/12 09:08:24;;;;;;;61.33;15.70;;;4.10;99.90;;;;;;5056303;28;20036;-79
2022/01/12 09:10:50;;;;;;;103.60;16.03;;;4.20;99.90;;;;;;5038898;28;20114;-79
2022/01/12 09:13:16;;;;;;;116.13;19.53;;;4.20;99.90;;;;;;5071518;28;20452;-79
2022/01/12 09:15:41;;;;;;;65.53;14.13;;;4.30;99.90;;;;;;5055805;28;20068;-80
2022/01/12 09:18:07;;;;;;;103.80;16.00;;;4.30;99.90;;;;;;5056387;28;20446;-79
2022/01/12 09:20:33;;;;;;;61.80;12.87;;;4.30;99.90;;;;;;5056305;28;20533;-79
2022/01/12 09:22:59;;;;;;;48.10;12.83;;;4.40;99.90;;;;;;5035754;28;20058;-79
2022/01/12 09:25:25;;;;;;;44.43;12.00;;;4.40;99.90;;;;;;5056956;28;20036;-79
2022/01/12 09:27:51;;;;;;;55.43;12.37;;;4.40;99.90;;;;;;5055812;28;20037;-79
2022/01/12 09:30:23;;;;;;;43.17;10.67;;;4.50;99.90;;;;;;5063764;28;20715;-79
2022/01/12 09:32:49;;;;;;;47.63;13.27;;;4.50;99.90;;;;;;5061564;28;20074;-79
2022/01/12 09:35:14;;;;;;;33.80;11.03;;;4.50;99.90;;;;;;5029960;28;20046;-79
2022/01/12 09:37:40;;;;;;;33.63;10.27;;;4.60;99.90;;;;;;5066272;28;20041;-78
2022/01/12 09:40:06;;;;;;;36.67;11.27;;;4.60;99.90;;;;;;5052233;28;20432;-79
2022/01/12 09:42:32;;;;;;;35.77;10.90;;;4.70;99.90;;;;;;5053606;28;20028;-79
2022/01/12 09:45:00;;;;;;;31.70;10.47;;;4.80;99.90;;;;;;5051898;28;20391;-80
2022/01/12 09:47:26;;;;;;;36.53;11.53;;;4.80;99.90;;;;;;5066483;28;20124;-79
2022/01/12 09:49:52;;;;;;;37.40;10.33;;;4.90;99.90;;;;;;5048388;28;20122;-79
2022/01/12 09:52:17;;;;;;;32.13;9.73;;;4.90;99.90;;;;;;5048914;28;20052;-79
2022/01/12 09:54:43;;;;;;;33.83;11.13;;;5.00;99.90;;;;;;5065929;28;20192;-79
2022/01/12 09:57:09;;;;;;;26.53;10.00;;;5.10;99.90;;;;;;5030670;28;20441;-79
2022/01/12 09:59:36;;;;;;;47.83;10.90;;;5.20;99.90;;;;;;5030358;28;20112;-79
2022/01/12 10:02:02;;;;;;;42.87;11.10;;;5.20;99.90;;;;;;5046298;28;20047;-79
2022/01/12 10:04:30;;;;;;;34.57;10.43;;;5.20;99.90;;;;;;5060175;28;20098;-79
2022/01/12 10:07:04;;;;;;;46.07;12.03;;;5.20;99.90;;;;;;5042098;28;20048;-79
2022/01/12 10:09:46;;;;;;;37.60;10.73;;;5.40;99.90;;;;;;5048725;28;20211;-79
2022/01/12 10:12:21;;;;;;;54.90;11.52;;;5.40;99.90;;;;;;5040965;28;20446;-79
2022/01/12 10:14:58;;;;;;;50.43;11.87;;;5.40;99.90;;;;;;5047525;28;20032;-80
2022/01/12 10:17:38;;;;;;;54.23;10.47;;;5.40;99.90;;;;;;5064716;28;20052;-79
2022/01/12 10:20:09;;;;;;;57.80;11.73;;;5.40;99.90;;;;;;5061541;28;20455;-79
2022/01/12 10:22:36;;;;;;;61.43;11.87;;;5.50;99.90;;;;;;5046029;28;20055;-79
2022/01/12 10:25:17;;;;;;;43.10;10.00;;;5.50;99.90;;;;;;5044624;28;20040;-80
2022/01/12 10:27:44;;;;;;;46.03;9.30;;;5.50;99.90;;;;;;5065000;28;20055;-79
2022/01/12 10:30:37;;;;;;;39.07;10.20;;;5.50;99.90;;;;;;5043254;28;20080;-79
2022/01/12 10:33:11;;;;;;;70.03;11.83;;;5.40;99.90;;;;;;5059619;28;20431;-80
2022/01/12 10:35:40;;;;;;;38.87;9.13;;;5.40;99.90;;;;;;5063780;28;20479;-80
2022/01/12 10:38:11;;;;;;;41.07;9.90;;;5.40;99.90;;;;;;5060246;28;20052;-80
2022/01/12 10:40:52;;;;;;;32.43;8.63;;;5.50;99.90;;;;;;5061027;28;20036;-80
2022/01/12 10:43:39;;;;;;;41.33;10.03;;;5.50;99.90;;;;;;5058321;28;20183;-80
2022/01/12 10:46:08;;;;;;;39.30;8.23;;;5.50;99.90;;;;;;5060798;28;21023;-80
2022/01/12 10:48:51;;;;;;;30.00;7.77;;;5.50;99.90;;;;;;5065466;28;20310;-80
2022/01/12 10:51:29;;;;;;;27.93;7.47;;;5.60;99.90;;;;;;5061098;28;20115;-80
2022/01/12 10:54:01;;;;;;;33.47;7.57;;;5.60;99.90;;;;;;5069366;28;20041;-81
2022/01/12 10:56:27;;;;;;;34.53;7.47;;;5.60;99.90;;;;;;5052877;28;20044;-81
2022/01/12 10:58:56;;;;;;;44.10;8.50;;;5.60;99.90;;;;;;5054252;28;20040;-79
2022/01/12 11:01:24;;;;;;;27.70;6.47;;;5.70;99.90;;;;;;5064598;28;20384;-79
2022/01/12 11:03:50;;;;;;;28.57;7.07;;;5.60;99.90;;;;;;5065888;28;20060;-80
2022/01/12 11:06:16;;;;;;;30.83;7.50;;;5.70;99.90;;;;;;5038456;28;20068;-81
2022/01/12 11:08:47;;;;;;;44.83;8.30;;;5.60;99.90;;;;;;5049398;28;20054;-80
2022/01/12 11:11:15;;;;;;;25.97;7.43;;;5.60;99.90;;;;;;5049063;28;20033;-81
2022/01/12 11:13:41;;;;;;;34.70;7.87;;;5.60;99.90;;;;;;5071517;28;20044;-81
2022/01/12 11:16:06;;;;;;;32.87;7.97;;;5.60;99.90;;;;;;5067884;28;20064;-80
2022/01/12 11:18:35;;;;;;;50.00;10.17;;;5.70;99.90;;;;;;5047437;28;20051;-81
2022/01/12 11:21:14;;;;;;;25.97;7.30;;;5.70;99.90;;;;;;5052021;28;20128;-81
2022/01/12 11:23:43;;;;;;;40.10;8.73;;;5.70;99.90;;;;;;5064157;28;20036;-80
2022/01/12 11:26:22;;;;;;;25.27;8.27;;;5.60;99.90;;;;;;5066989;28;20041;-81
2022/01/12 11:28:51;;;;;;;26.67;8.63;;;5.70;99.90;;;;;;5050120;28;20070;-81
2022/01/12 11:31:30;;;;;;;29.80;9.23;;;5.70;99.90;;;;;;5045042;28;20064;-81
2022/01/12 11:33:56;;;;;;;33.10;9.13;;;5.80;99.90;;;;;;5039504;28;20123;-81
2022/01/12 11:36:39;;;;;;;26.27;8.90;;;5.70;99.90;;;;;;5063913;28;20037;-80
2022/01/12 11:39:16;;;;;;;41.47;9.30;;;5.80;99.90;;;;;;5053852;28;20040;-80
2022/01/12 11:41:47;;;;;;;28.90;8.63;;;5.80;99.90;;;;;;5062037;28;20036;-80
2022/01/12 11:44:22;;;;;;;22.57;9.03;;;5.80;99.90;;;;;;5052095;28;20448;-80
2022/01/12 11:46:51;;;;;;;30.43;8.83;;;5.80;99.90;;;;;;5048720;28;20079;-81
2022/01/12 11:49:52;;;;;;;35.23;8.83;;;5.80;99.90;;;;;;5045520;28;20107;-80
2022/01/12 11:52:30;;;;;;;22.27;7.80;;;5.80;99.90;;;;;;5067279;28;20102;-80
2022/01/12 11:55:14;;;;;;;25.27;7.70;;;5.70;99.90;;;;;;5070597;28;20032;-80
2022/01/12 11:57:46;;;;;;;29.43;7.80;;;5.70;99.90;;;;;;5046277;28;20055;-81
2022/01/12 12:00:18;;;;;;;21.70;7.25;;;5.60;99.90;;;;;;5053154;28;20081;-80
2022/01/12 12:02:46;;;;;;;18.58;6.82;;;5.60;99.90;;;;;;5052326;28;20064;-80
2022/01/12 12:05:13;;;;;;;21.60;7.33;;;5.50;99.90;;;;;;5070265;28;20499;-80
2022/01/12 12:08:02;;;;;;;23.40;7.43;;;5.50;99.90;;;;;;5070267;28;20040;-80
2022/01/12 12:10:34;;;;;;;33.50;9.67;;;5.50;99.90;;;;;;5066525;28;20135;-80
2022/01/12 12:13:00;;;;;;;31.83;10.03;;;5.50;99.90;;;;;;5072443;28;20206;-80
2022/01/12 12:15:27;;;;;;;24.50;9.27;;;5.50;99.90;;;;;;5053634;28;20453;-81
2022/01/12 12:17:54;;;;;;;26.40;8.53;;;5.60;99.90;;;;;;5064716;28;20407;-81
2022/01/12 12:20:23;;;;;;;25.43;9.37;;;5.60;99.90;;;;;;5054593;28;20157;-81
2022/01/12 12:22:49;;;;;;;22.40;8.40;;;5.60;99.90;;;;;;5071983;28;20381;-80
2022/01/12 12:25:18;;;;;;;29.87;9.00;;;5.70;99.90;;;;;;5071378;28;20557;-80
2022/01/12 12:27:55;;;;;;;26.33;8.13;;;5.70;99.90;;;;;;5049143;28;20032;-80
2022/01/12 12:30:23;;;;;;;20.07;7.40;;;5.70;99.90;;;;;;5057545;28;20510;-80
2022/01/12 12:32:55;;;;;;;23.83;9.10;;;5.70;99.90;;;;;;5050662;28;20040;-80
2022/01/12 12:35:27;;;;;;;24.50;8.43;;;5.70;99.90;;;;;;5070902;28;20114;-80
2022/01/12 12:37:59;;;;;;;31.65;9.20;;;5.70;99.90;;;;;;5054768;28;20059;-80
2022/01/12 12:40:28;;;;;;;31.55;8.95;;;5.80;99.90;;;;;;5071770;28;20383;-81
2022/01/12 12:43:22;;;;;;;24.80;8.03;;;5.80;99.90;;;;;;5096621;27;20482;-85
2022/01/12 12:45:56;;;;;;;21.53;8.23;;;5.80;99.90;;;;;;5084601;28;20052;-77
2022/01/12 12:48:40;;;;;;;23.33;8.53;;;5.80;99.90;;;;;;5077188;28;20601;-77
2022/01/12 12:51:16;;;;;;;26.50;8.43;;;5.80;99.90;;;;;;5062469;28;20044;-77
2022/01/12 12:53:54;;;;;;;27.57;8.13;;;5.90;99.90;;;;;;5095695;28;20059;-77
2022/01/12 12:56:26;;;;;;;26.47;9.00;;;5.90;99.90;;;;;;5062019;28;20045;-77
2022/01/12 12:58:54;;;;;;;29.23;8.87;;;5.90;99.90;;;;;;5045476;28;20044;-77
2022/01/12 13:01:22;;;;;;;23.70;8.60;;;5.90;99.90;;;;;;5077278;28;20075;-77
2022/01/12 13:03:51;;;;;;;30.10;9.23;;;5.90;99.90;;;;;;5063677;28;20079;-77
2022/01/12 13:06:30;;;;;;;21.57;8.37;;;5.90;99.90;;;;;;5076266;28;20051;-77
2022/01/12 13:09:12;;;;;;;29.87;8.90;;;6.00;99.90;;;;;;5076241;28;20032;-77
2022/01/12 13:11:39;;;;;;;22.00;8.40;;;6.00;99.90;;;;;;5076674;28;20056;-77
2022/01/12 13:14:07;;;;;;;24.87;8.23;;;6.10;99.90;;;;;;5076743;28;20044;-78
2022/01/12 13:16:34;;;;;;;33.03;10.00;;;6.00;99.90;;;;;;5119920;28;20570;-77
2022/01/12 13:19:20;;;;;;;31.03;9.20;;;6.10;99.90;;;;;;5076401;28;20044;-77
2022/01/12 13:21:46;;;;;;;30.30;9.90;;;6.10;99.90;;;;;;5080181;28;20048;-77
2022/01/12 13:24:13;;;;;;;32.17;10.20;;;6.20;99.90;;;;;;5043746;28;20574;-78
2022/01/12 13:26:39;;;;;;;34.70;11.20;;;6.20;99.90;;;;;;5076493;28;20040;-78
2022/01/12 13:29:12;;;;;;;29.87;10.93;;;6.20;99.90;;;;;;5061731;28;20036;-77
2022/01/12 13:31:39;;;;;;;28.40;10.07;;;6.20;99.90;;;;;;5077591;28;20772;-77
2022/01/12 13:34:06;;;;;;;35.53;12.57;;;6.20;99.90;;;;;;5078836;28;20392;-78
2022/01/12 13:36:34;;;;;;;31.40;10.77;;;6.20;99.90;;;;;;5077894;28;20036;-77
2022/01/12 13:39:09;;;;;;;37.27;10.77;;;6.20;99.90;;;;;;5078466;28;20048;-77
2022/01/12 13:41:40;;;;;;;27.93;10.20;;;6.30;99.90;;;;;;5095194;28;20071;-77
2022/01/12 13:44:18;;;;;;;28.23;10.27;;;6.20;99.90;;;;;;5077390;28;20048;-77
2022/01/12 13:47:04;;;;;;;25.63;9.90;;;6.10;99.90;;;;;;5078650;28;20097;-77
2022/01/12 13:49:30;;;;;;;25.73;9.87;;;6.10;99.90;;;;;;5090563;28;20123;-77
2022/01/12 13:52:01;;;;;;;24.07;10.70;;;6.00;99.90;;;;;;5061474;28;20076;-77
2022/01/12 13:54:30;;;;;;;26.73;10.35;;;5.90;99.90;;;;;;5063745;28;20052;-78
2022/01/12 13:56:58;;;;;;;22.43;9.50;;;5.90;99.90;;;;;;5079753;28;20029;-78
2022/01/12 13:59:27;;;;;;;26.83;9.67;;;5.80;99.90;;;;;;5062080;28;20099;-77
2022/01/12 14:01:53;;;;;;;26.33;9.90;;;5.80;99.90;;;;;;5067758;28;20045;-77
2022/01/12 14:04:39;;;;;;;27.70;10.03;;;5.80;99.90;;;;;;5079201;28;20503;-76